PWSweather.com
Personal Weather Stations
Station Observations
WAIROAHB
Wairoa, Northern Hawkes Bay -NZ 4108

WairoaNorthern Hawkes Bay -NZ 4108

Lat: -39.04516934, Lon: 177.4263989

Elevation: 156

Station Type: WS3083

http://wairoa.net/weather/index.htm

High Low Average
Temperature 70.5°F21.4°C 59.5°F15.3°C 65.1°F18.4°C
Dew Point 64.4°F18.0°C 57.1°F13.9°C 60.1°F15.6°C
Winds 7.6 mph 12.2 kmh Calm Calm 2.0 mph E3.2 kmh E
Wind Gusts 17.4 mph28.0 kmh -- 5.0 mph8.0 kmh
Humidity 99% 63% 84%
Pressure 29.79 in1008.8 mb 29.65 in1004.1 mb -
Precipitation 0.19 in4.8 mm - -
Hour Temp Dew Point Humidity Winds Wind Gusts Pressure Precip Precip Rate Daily Precip Total
12:00 AM 70.5°F21.4°C 58.2°F14.6°C 65% 3.1 mph NE5.0 kmh NE 8.3 mph13.4 kmh 29.78 in1008.5 mb 0.00 in0.0 mm 0.00 in0.0 mm 0.00 in0.0 mm
12:10 AM 70.3°F21.3°C 58.0°F14.4°C 65% 1.6 mph N2.6 kmh N 6.0 mph9.7 kmh 29.79 in1008.8 mb 0.00 in0.0 mm 0.00 in0.0 mm 0.00 in0.0 mm
12:20 AM 69.8°F21.0°C 57.5°F14.2°C 65% 2.2 mph N3.5 kmh N 3.8 mph6.1 kmh 29.78 in1008.5 mb 0.00 in0.0 mm 0.00 in0.0 mm 0.00 in0.0 mm
12:30 AM 70.0°F21.1°C 57.7°F14.3°C 65% 5.4 mph NNW8.7 kmh NNW 16.8 mph27.0 kmh 29.77 in1008.1 mb 0.00 in0.0 mm 0.00 in0.0 mm 0.00 in0.0 mm
12:40 AM 69.6°F20.9°C 57.8°F14.3°C 66% 2.2 mph N3.5 kmh N 7.6 mph12.2 kmh 29.76 in1007.8 mb 0.00 in0.0 mm 0.00 in0.0 mm 0.00 in0.0 mm
12:50 AM 69.8°F21.0°C 57.1°F13.9°C 64% 4.5 mph N7.2 kmh N 13.6 mph21.9 kmh 29.75 in1007.5 mb 0.00 in0.0 mm 0.00 in0.0 mm 0.00 in0.0 mm
01:00 AM 70.3°F21.3°C 57.2°F14.0°C 63% 6.9 mph N11.1 kmh N 13.6 mph21.9 kmh 29.75 in1007.5 mb 0.00 in0.0 mm 0.00 in0.0 mm 0.00 in0.0 mm
01:10 AM 70.3°F21.3°C 57.2°F14.0°C 63% 7.6 mph N12.2 kmh N 14.5 mph23.3 kmh 29.74 in1007.1 mb 0.00 in0.0 mm 0.00 in0.0 mm 0.00 in0.0 mm
01:20 AM 70.2°F21.2°C 57.4°F14.1°C 64% 7.6 mph N12.2 kmh N 12.1 mph19.5 kmh 29.73 in1006.8 mb 0.00 in0.0 mm 0.00 in0.0 mm 0.00 in0.0 mm
01:30 AM 70.2°F21.2°C 57.4°F14.1°C 64% 7.6 mph NNE12.2 kmh NNE 14.5 mph23.3 kmh 29.73 in1006.8 mb 0.00 in0.0 mm 0.00 in0.0 mm 0.00 in0.0 mm
01:40 AM 70.2°F21.2°C 57.4°F14.1°C 64% 6.9 mph N11.1 kmh N 13.0 mph20.9 kmh 29.73 in1006.8 mb 0.00 in0.0 mm 0.00 in0.0 mm 0.00 in0.0 mm
01:50 AM 70.5°F21.4°C 57.3°F14.1°C 63% 5.4 mph N8.7 kmh N 17.4 mph28.0 kmh 29.73 in1006.8 mb 0.00 in0.0 mm 0.00 in0.0 mm 0.00 in0.0 mm
02:00 AM 70.0°F21.1°C 57.7°F14.3°C 65% 6.9 mph N11.1 kmh N 8.3 mph13.4 kmh 29.72 in1006.4 mb 0.00 in0.0 mm 0.00 in0.0 mm 0.00 in0.0 mm
02:10 AM 69.4°F20.8°C 57.6°F14.2°C 66% 5.4 mph N8.7 kmh N 9.2 mph14.8 kmh 29.72 in1006.4 mb 0.00 in0.0 mm 0.00 in0.0 mm 0.00 in0.0 mm
02:20 AM 69.6°F20.9°C 57.8°F14.3°C 66% 6.9 mph N11.1 kmh N 13.0 mph20.9 kmh 29.70 in1005.8 mb 0.00 in0.0 mm 0.00 in0.0 mm 0.00 in0.0 mm
02:30 AM 69.1°F20.6°C 57.7°F14.3°C 67% 4.5 mph NNE7.2 kmh NNE 9.2 mph14.8 kmh 29.70 in1005.8 mb 0.00 in0.0 mm 0.00 in0.0 mm 0.00 in0.0 mm
02:40 AM 68.5°F20.3°C 57.6°F14.2°C 68% 3.8 mph N6.1 kmh N 7.6 mph12.2 kmh 29.70 in1005.8 mb 0.00 in0.0 mm 0.00 in0.0 mm 0.00 in0.0 mm
02:50 AM 68.5°F20.3°C 58.0°F14.4°C 69% 3.8 mph NNE6.1 kmh NNE 6.0 mph9.7 kmh 29.70 in1005.8 mb 0.00 in0.0 mm 0.00 in0.0 mm 0.00 in0.0 mm
03:00 AM 68.5°F20.3°C 58.4°F14.7°C 70% 1.6 mph N2.6 kmh N 4.5 mph7.2 kmh 29.70 in1005.8 mb 0.00 in0.0 mm 0.00 in0.0 mm 0.00 in0.0 mm
03:10 AM 67.8°F19.9°C 58.5°F14.7°C 72% 2.2 mph N3.5 kmh N 3.1 mph5.0 kmh 29.70 in1005.8 mb 0.00 in0.0 mm 0.00 in0.0 mm 0.00 in0.0 mm
03:20 AM 67.6°F19.8°C 58.7°F14.8°C 73% 3.8 mph N6.1 kmh N 6.9 mph11.1 kmh 29.69 in1005.4 mb 0.00 in0.0 mm 0.00 in0.0 mm 0.00 in0.0 mm
03:30 AM 67.8°F19.9°C 58.9°F14.9°C 73% 3.1 mph N5.0 kmh N 5.4 mph8.7 kmh 29.69 in1005.4 mb 0.00 in0.0 mm 0.00 in0.0 mm 0.00 in0.0 mm
03:40 AM 68.4°F20.2°C 58.2°F14.6°C 70% 6.0 mph NNW9.7 kmh NNW 10.7 mph17.2 kmh 29.68 in1005.1 mb 0.00 in0.0 mm 0.00 in0.0 mm 0.00 in0.0 mm
03:50 AM 69.6°F20.9°C 58.2°F14.6°C 67% 4.5 mph N7.2 kmh N 10.7 mph17.2 kmh 29.68 in1005.1 mb 0.00 in0.0 mm 0.00 in0.0 mm 0.00 in0.0 mm
04:00 AM 70.2°F21.2°C 58.7°F14.8°C 67% 2.2 mph N3.5 kmh N 8.3 mph13.4 kmh 29.69 in1005.4 mb 0.00 in0.0 mm 0.00 in0.0 mm 0.00 in0.0 mm
04:10 AM 70.0°F21.1°C 58.5°F14.7°C 67% 3.8 mph N6.1 kmh N 6.9 mph11.1 kmh 29.69 in1005.4 mb 0.00 in0.0 mm 0.00 in0.0 mm 0.00 in0.0 mm
04:20 AM 70.2°F21.2°C 58.7°F14.8°C 67% 1.6 mph NNW2.6 kmh NNW 7.6 mph12.2 kmh 29.69 in1005.4 mb 0.00 in0.0 mm 0.00 in0.0 mm 0.00 in0.0 mm
04:30 AM 69.6°F20.9°C 58.6°F14.8°C 68% 1.6 mph N2.6 kmh N 4.5 mph7.2 kmh 29.69 in1005.4 mb 0.00 in0.0 mm 0.00 in0.0 mm 0.00 in0.0 mm
04:40 AM 69.3°F20.7°C 58.7°F14.8°C 69% Calm Calm 3.8 mph6.1 kmh 29.69 in1005.4 mb 0.00 in0.0 mm 0.00 in0.0 mm 0.00 in0.0 mm
04:50 AM 68.9°F20.5°C 58.7°F14.8°C 70% Calm Calm -- 29.68 in1005.1 mb 0.00 in0.0 mm 0.00 in0.0 mm 0.00 in0.0 mm
05:00 AM 68.4°F20.2°C 59.4°F15.2°C 73% 1.6 mph W2.6 kmh W 2.2 mph3.5 kmh 29.69 in1005.4 mb 0.00 in0.0 mm 0.00 in0.0 mm 0.00 in0.0 mm
05:10 AM 67.8°F19.9°C 59.6°F15.3°C 75% Calm Calm 2.2 mph3.5 kmh 29.69 in1005.4 mb 0.00 in0.0 mm 0.00 in0.0 mm 0.00 in0.0 mm
05:20 AM 67.6°F19.8°C 59.8°F15.4°C 76% Calm Calm -- 29.69 in1005.4 mb 0.00 in0.0 mm 0.00 in0.0 mm 0.00 in0.0 mm
05:30 AM 67.6°F19.8°C 59.8°F15.4°C 76% Calm Calm -- 29.69 in1005.4 mb 0.00 in0.0 mm 0.00 in0.0 mm 0.00 in0.0 mm
05:40 AM 66.7°F19.3°C 59.3°F15.2°C 77% Calm Calm -- 29.70 in1005.8 mb 0.00 in0.0 mm 0.00 in0.0 mm 0.00 in0.0 mm
05:50 AM 67.5°F19.7°C 60.4°F15.8°C 78% 0.7 mph NW1.1 kmh NW 2.2 mph3.5 kmh 29.69 in1005.4 mb 0.00 in0.0 mm 0.00 in0.0 mm 0.00 in0.0 mm
06:00 AM 68.0°F20.0°C 60.2°F15.7°C 76% 0.7 mph NNW1.1 kmh NNW 3.1 mph5.0 kmh 29.69 in1005.4 mb 0.00 in0.0 mm 0.00 in0.0 mm 0.00 in0.0 mm
06:10 AM 68.4°F20.2°C 60.2°F15.7°C 75% 2.2 mph NNW3.5 kmh NNW 3.8 mph6.1 kmh 29.69 in1005.4 mb 0.00 in0.0 mm 0.00 in0.0 mm 0.00 in0.0 mm
06:20 AM 68.5°F20.3°C 60.7°F15.9°C 76% 3.1 mph NE5.0 kmh NE 3.8 mph6.1 kmh 29.70 in1005.8 mb 0.00 in0.0 mm 0.00 in0.0 mm 0.00 in0.0 mm
06:30 AM 68.5°F20.3°C 60.7°F15.9°C 76% 1.6 mph NE2.6 kmh NE 3.8 mph6.1 kmh 29.69 in1005.4 mb 0.00 in0.0 mm 0.00 in0.0 mm 0.00 in0.0 mm
06:40 AM 68.0°F20.0°C 60.2°F15.7°C 76% Calm Calm 3.1 mph5.0 kmh 29.69 in1005.4 mb 0.00 in0.0 mm 0.00 in0.0 mm 0.00 in0.0 mm
06:50 AM 68.4°F20.2°C 61.3°F16.3°C 78% Calm Calm -- 29.70 in1005.8 mb 0.00 in0.0 mm 0.00 in0.0 mm 0.00 in0.0 mm
07:00 AM 68.5°F20.3°C 61.4°F16.3°C 78% Calm Calm -- 29.69 in1005.4 mb 0.00 in0.0 mm 0.00 in0.0 mm 0.00 in0.0 mm
07:10 AM 68.0°F20.0°C 61.3°F16.3°C 79% 2.2 mph N3.5 kmh N 3.8 mph6.1 kmh 29.69 in1005.4 mb 0.00 in0.0 mm 0.00 in0.0 mm 0.00 in0.0 mm
07:40 AM 68.2°F20.1°C 58.8°F14.9°C 72% 6.0 mph N9.7 kmh N 12.1 mph19.5 kmh 29.69 in1005.4 mb 0.00 in0.0 mm 0.00 in0.0 mm 0.00 in0.0 mm
07:50 AM 68.4°F20.2°C 59.8°F15.4°C 74% 3.8 mph NE6.1 kmh NE 11.4 mph18.3 kmh 29.69 in1005.4 mb 0.00 in0.0 mm 0.00 in0.0 mm 0.00 in0.0 mm
08:00 AM 67.6°F19.8°C 60.2°F15.7°C 77% 3.1 mph NNE5.0 kmh NNE 9.2 mph14.8 kmh 29.70 in1005.8 mb 0.00 in0.0 mm 0.00 in0.0 mm 0.00 in0.0 mm
08:10 AM 67.5°F19.7°C 60.7°F15.9°C 79% 3.1 mph NNE5.0 kmh NNE 6.9 mph11.1 kmh 29.70 in1005.8 mb 0.00 in0.0 mm 0.00 in0.0 mm 0.00 in0.0 mm
08:20 AM 67.3°F19.6°C 61.3°F16.3°C 81% 2.2 mph N3.5 kmh N 6.0 mph9.7 kmh 29.70 in1005.8 mb 0.01 in0.3 mm 0.06 in1.5 mm 0.01 in0.3 mm
08:30 AM 66.7°F19.3°C 61.8°F16.6°C 84% Calm Calm 4.5 mph7.2 kmh 29.70 in1005.8 mb 0.01 in0.3 mm 0.00 in0.0 mm 0.01 in0.3 mm
08:40 AM 66.0°F18.9°C 61.4°F16.3°C 85% Calm Calm 0.7 mph1.1 kmh 29.70 in1005.8 mb 0.01 in0.3 mm 0.00 in0.0 mm 0.01 in0.3 mm
08:50 AM 66.4°F19.1°C 61.8°F16.6°C 85% Calm Calm -- 29.70 in1005.8 mb 0.02 in0.5 mm 0.06 in1.5 mm 0.02 in0.5 mm
09:00 AM 66.6°F19.2°C 62.9°F17.2°C 88% Calm Calm -- 29.70 in1005.8 mb 0.02 in0.5 mm 0.00 in0.0 mm 0.02 in0.5 mm
09:10 AM 66.4°F19.1°C 63.4°F17.4°C 90% Calm Calm 1.6 mph2.6 kmh 29.69 in1005.4 mb 0.02 in0.5 mm 0.00 in0.0 mm 0.02 in0.5 mm
09:20 AM 66.9°F19.4°C 64.2°F17.9°C 91% Calm Calm 0.7 mph1.1 kmh 29.69 in1005.4 mb 0.01 in0.3 mm 0.00 in0.0 mm 0.02 in0.5 mm
09:30 AM 66.7°F19.3°C 64.4°F18.0°C 92% Calm Calm -- 29.68 in1005.1 mb 0.01 in0.3 mm 0.00 in0.0 mm 0.02 in0.5 mm
09:40 AM 65.8°F18.8°C 63.5°F17.5°C 92% Calm Calm 3.1 mph5.0 kmh 29.68 in1005.1 mb 0.01 in0.3 mm 0.00 in0.0 mm 0.02 in0.5 mm
09:50 AM 65.5°F18.6°C 62.2°F16.8°C 89% Calm Calm -- 29.69 in1005.4 mb 0.00 in0.0 mm 0.00 in0.0 mm 0.02 in0.5 mm
10:00 AM 65.3°F18.5°C 61.4°F16.3°C 87% Calm Calm -- 29.69 in1005.4 mb 0.00 in0.0 mm 0.00 in0.0 mm 0.02 in0.5 mm
10:10 AM 65.3°F18.5°C 61.7°F16.5°C 88% Calm Calm -- 29.70 in1005.8 mb 0.00 in0.0 mm 0.00 in0.0 mm 0.02 in0.5 mm
10:20 AM 64.8°F18.2°C 61.1°F16.2°C 88% 2.2 mph N3.5 kmh N 3.8 mph6.1 kmh 29.69 in1005.4 mb 0.00 in0.0 mm 0.00 in0.0 mm 0.02 in0.5 mm
10:30 AM 64.8°F18.2°C 61.5°F16.4°C 89% Calm Calm 3.8 mph6.1 kmh 29.69 in1005.4 mb 0.00 in0.0 mm 0.00 in0.0 mm 0.02 in0.5 mm
10:40 AM 65.3°F18.5°C 62.0°F16.7°C 89% Calm Calm -- 29.70 in1005.8 mb 0.00 in0.0 mm 0.00 in0.0 mm 0.02 in0.5 mm
10:50 AM 65.8°F18.8°C 62.5°F16.9°C 89% Calm Calm -- 29.69 in1005.4 mb 0.01 in0.3 mm 0.06 in1.5 mm 0.04 in1.0 mm
11:00 AM 65.5°F18.6°C 61.5°F16.4°C 87% 3.1 mph SE5.0 kmh SE 3.8 mph6.1 kmh 29.69 in1005.4 mb 0.01 in0.3 mm 0.00 in0.0 mm 0.04 in1.0 mm
11:10 AM 64.8°F18.2°C 60.5°F15.8°C 86% 2.2 mph WSW3.5 kmh WSW 6.0 mph9.7 kmh 29.69 in1005.4 mb 0.02 in0.5 mm 0.06 in1.5 mm 0.05 in1.3 mm
11:20 AM 64.4°F18.0°C 59.5°F15.3°C 84% 4.5 mph WSW7.2 kmh WSW 9.2 mph14.8 kmh 29.68 in1005.1 mb 0.02 in0.5 mm 0.00 in0.0 mm 0.05 in1.3 mm
11:30 AM 64.4°F18.0°C 58.8°F14.9°C 82% 4.5 mph WSW7.2 kmh WSW 7.6 mph12.2 kmh 29.69 in1005.4 mb 0.02 in0.5 mm 0.00 in0.0 mm 0.05 in1.3 mm
11:40 AM 64.4°F18.0°C 58.8°F14.9°C 82% 7.6 mph WSW12.2 kmh WSW 9.8 mph15.8 kmh 29.69 in1005.4 mb 0.02 in0.5 mm 0.00 in0.0 mm 0.05 in1.3 mm
11:50 AM 64.2°F17.9°C 59.6°F15.3°C 85% 6.0 mph WSW9.7 kmh WSW 11.4 mph18.3 kmh 29.68 in1005.1 mb 0.01 in0.3 mm 0.00 in0.0 mm 0.05 in1.3 mm
12:00 PM 64.2°F17.9°C 60.3°F15.7°C 87% 6.0 mph SW9.7 kmh SW 11.4 mph18.3 kmh 29.68 in1005.1 mb 0.01 in0.3 mm 0.00 in0.0 mm 0.05 in1.3 mm
12:10 PM 63.9°F17.7°C 59.0°F15.0°C 84% 7.6 mph SW12.2 kmh SW 12.1 mph19.5 kmh 29.70 in1005.8 mb 0.00 in0.0 mm 0.00 in0.0 mm 0.05 in1.3 mm
12:20 PM 62.8°F17.1°C 57.9°F14.4°C 84% 6.0 mph WSW9.7 kmh WSW 15.2 mph24.5 kmh 29.69 in1005.4 mb 0.02 in0.5 mm 0.12 in3.0 mm 0.07 in1.8 mm
12:30 PM 62.1°F16.7°C 59.1°F15.1°C 90% 6.0 mph WSW9.7 kmh WSW 13.0 mph20.9 kmh 29.70 in1005.8 mb 0.02 in0.5 mm 0.00 in0.0 mm 0.07 in1.8 mm
12:40 PM 61.7°F16.5°C 59.7°F15.4°C 93% 2.2 mph W3.5 kmh W 9.8 mph15.8 kmh 29.70 in1005.8 mb 0.05 in1.3 mm 0.18 in4.6 mm 0.09 in2.3 mm
12:50 PM 61.5°F16.4°C 59.8°F15.4°C 94% 7.6 mph WSW12.2 kmh WSW 9.2 mph14.8 kmh 29.68 in1005.1 mb 0.05 in1.3 mm 0.00 in0.0 mm 0.09 in2.3 mm
01:00 PM 61.9°F16.6°C 60.2°F15.7°C 94% 1.6 mph W2.6 kmh W 9.2 mph14.8 kmh 29.69 in1005.4 mb 0.05 in1.3 mm 0.00 in0.0 mm 0.09 in2.3 mm
01:10 PM 62.2°F16.8°C 60.2°F15.7°C 93% Calm Calm 3.1 mph5.0 kmh 29.70 in1005.8 mb 0.05 in1.3 mm 0.00 in0.0 mm 0.09 in2.3 mm
01:20 PM 62.2°F16.8°C 59.9°F15.5°C 92% Calm Calm -- 29.70 in1005.8 mb 0.04 in1.0 mm 0.00 in0.0 mm 0.11 in2.8 mm
01:30 PM 62.2°F16.8°C 59.9°F15.5°C 92% 2.2 mph NNE3.5 kmh NNE 3.1 mph5.0 kmh 29.71 in1006.1 mb 0.04 in1.0 mm 0.00 in0.0 mm 0.11 in2.8 mm
01:40 PM 61.9°F16.6°C 59.9°F15.5°C 93% Calm Calm 4.5 mph7.2 kmh 29.71 in1006.1 mb 0.02 in0.5 mm 0.00 in0.0 mm 0.12 in3.0 mm
01:50 PM 61.7°F16.5°C 60.0°F15.6°C 94% 1.6 mph NNW2.6 kmh NNW 3.8 mph6.1 kmh 29.71 in1006.1 mb 0.02 in0.5 mm 0.00 in0.0 mm 0.12 in3.0 mm
02:00 PM 61.7°F16.5°C 60.6°F15.9°C 96% 0.7 mph NW1.1 kmh NW 3.1 mph5.0 kmh 29.71 in1006.1 mb 0.05 in1.3 mm 0.04 in1.0 mm 0.14 in3.6 mm
02:10 PM 61.3°F16.3°C 60.2°F15.7°C 96% Calm Calm 1.6 mph2.6 kmh 29.71 in1006.1 mb 0.05 in1.3 mm 0.00 in0.0 mm 0.14 in3.6 mm
02:20 PM 61.2°F16.2°C 60.0°F15.6°C 96% Calm Calm 2.2 mph3.5 kmh 29.70 in1005.8 mb 0.05 in1.3 mm 0.00 in0.0 mm 0.15 in3.8 mm
02:30 PM 60.8°F16.0°C 59.7°F15.4°C 96% Calm Calm 1.6 mph2.6 kmh 29.70 in1005.8 mb 0.06 in1.5 mm 0.06 in1.5 mm 0.17 in4.3 mm
02:40 PM 61.2°F16.2°C 60.0°F15.6°C 96% Calm Calm -- 29.71 in1006.1 mb 0.05 in1.3 mm 0.00 in0.0 mm 0.17 in4.3 mm
02:50 PM 61.7°F16.5°C 60.6°F15.9°C 96% Calm Calm -- 29.71 in1006.1 mb 0.05 in1.3 mm 0.00 in0.0 mm 0.17 in4.3 mm
03:00 PM 62.8°F17.1°C 61.3°F16.3°C 95% Calm Calm -- 29.70 in1005.8 mb 0.02 in0.5 mm 0.00 in0.0 mm 0.17 in4.3 mm
03:10 PM 63.5°F17.5°C 61.5°F16.4°C 93% 1.6 mph ENE2.6 kmh ENE 3.1 mph5.0 kmh 29.69 in1005.4 mb 0.02 in0.5 mm 0.00 in0.0 mm 0.17 in4.3 mm
03:20 PM 62.6°F17.0°C 60.0°F15.6°C 91% 2.2 mph NE3.5 kmh NE 5.4 mph8.7 kmh 29.69 in1005.4 mb 0.01 in0.3 mm 0.00 in0.0 mm 0.17 in4.3 mm
03:30 PM 62.2°F16.8°C 60.2°F15.7°C 93% 3.1 mph NE5.0 kmh NE 6.0 mph9.7 kmh 29.68 in1005.1 mb 0.01 in0.3 mm 0.00 in0.0 mm 0.18 in4.6 mm
03:40 PM 62.4°F16.9°C 61.0°F16.1°C 95% 3.1 mph E5.0 kmh E 6.0 mph9.7 kmh 29.68 in1005.1 mb 0.02 in0.5 mm 0.06 in1.5 mm 0.19 in4.8 mm
03:50 PM 62.8°F17.1°C 61.0°F16.1°C 94% 2.2 mph E3.5 kmh E 5.4 mph8.7 kmh 29.68 in1005.1 mb 0.02 in0.5 mm 0.00 in0.0 mm 0.19 in4.8 mm
04:00 PM 63.1°F17.3°C 61.1°F16.2°C 93% Calm Calm 3.1 mph5.0 kmh 29.68 in1005.1 mb 0.02 in0.5 mm 0.00 in0.0 mm 0.19 in4.8 mm
04:10 PM 63.9°F17.7°C 61.2°F16.2°C 91% 0.7 mph NE1.1 kmh NE 3.1 mph5.0 kmh 29.67 in1004.7 mb 0.02 in0.5 mm 0.00 in0.0 mm 0.19 in4.8 mm
04:20 PM 65.7°F18.7°C 62.4°F16.9°C 89% Calm Calm 2.2 mph3.5 kmh 29.66 in1004.4 mb 0.02 in0.5 mm 0.00 in0.0 mm 0.19 in4.8 mm
04:30 PM 67.6°F19.8°C 63.0°F17.2°C 85% Calm Calm 3.8 mph6.1 kmh 29.66 in1004.4 mb 0.01 in0.3 mm 0.00 in0.0 mm 0.19 in4.8 mm
04:40 PM 67.6°F19.8°C 61.6°F16.4°C 81% Calm Calm 3.1 mph5.0 kmh 29.66 in1004.4 mb 0.00 in0.0 mm 0.00 in0.0 mm 0.19 in4.8 mm
04:50 PM 66.6°F19.2°C 61.3°F16.3°C 83% Calm Calm 1.6 mph2.6 kmh 29.66 in1004.4 mb 0.00 in0.0 mm 0.00 in0.0 mm 0.19 in4.8 mm
05:00 PM 65.7°F18.7°C 61.1°F16.2°C 85% Calm Calm 3.1 mph5.0 kmh 29.66 in1004.4 mb 0.00 in0.0 mm 0.00 in0.0 mm 0.19 in4.8 mm
05:10 PM 64.8°F18.2°C 60.5°F15.8°C 86% Calm Calm 3.1 mph5.0 kmh 29.65 in1004.1 mb 0.00 in0.0 mm 0.00 in0.0 mm 0.19 in4.8 mm
05:20 PM 64.0°F17.8°C 60.8°F16.0°C 89% 2.2 mph W3.5 kmh W 5.4 mph8.7 kmh 29.66 in1004.4 mb 0.00 in0.0 mm 0.00 in0.0 mm 0.19 in4.8 mm
05:30 PM 63.5°F17.5°C 60.8°F16.0°C 91% 1.6 mph SE2.6 kmh SE 5.4 mph8.7 kmh 29.66 in1004.4 mb 0.00 in0.0 mm 0.00 in0.0 mm 0.19 in4.8 mm
05:40 PM 63.5°F17.5°C 60.8°F16.0°C 91% Calm Calm 4.5 mph7.2 kmh 29.67 in1004.7 mb 0.00 in0.0 mm 0.00 in0.0 mm 0.19 in4.8 mm
05:50 PM 63.1°F17.3°C 60.5°F15.8°C 91% 2.2 mph ESE3.5 kmh ESE 4.5 mph7.2 kmh 29.67 in1004.7 mb 0.00 in0.0 mm 0.00 in0.0 mm 0.19 in4.8 mm
06:00 PM 62.8°F17.1°C 60.4°F15.8°C 92% 2.2 mph E3.5 kmh E 4.5 mph7.2 kmh 29.68 in1005.1 mb 0.00 in0.0 mm 0.00 in0.0 mm 0.19 in4.8 mm
06:10 PM 62.8°F17.1°C 60.1°F15.6°C 91% Calm Calm 4.5 mph7.2 kmh 29.67 in1004.7 mb 0.00 in0.0 mm 0.00 in0.0 mm 0.19 in4.8 mm
06:20 PM 62.8°F17.1°C 60.4°F15.8°C 92% Calm Calm 3.1 mph5.0 kmh 29.68 in1005.1 mb 0.00 in0.0 mm 0.00 in0.0 mm 0.19 in4.8 mm
06:30 PM 62.6°F17.0°C 60.3°F15.7°C 92% Calm Calm 2.2 mph3.5 kmh 29.68 in1005.1 mb 0.00 in0.0 mm 0.00 in0.0 mm 0.19 in4.8 mm
06:40 PM 62.6°F17.0°C 60.3°F15.7°C 92% Calm Calm 1.6 mph2.6 kmh 29.69 in1005.4 mb 0.00 in0.0 mm 0.00 in0.0 mm 0.19 in4.8 mm
06:50 PM 62.6°F17.0°C 60.3°F15.7°C 92% Calm Calm 3.8 mph6.1 kmh 29.69 in1005.4 mb 0.00 in0.0 mm 0.00 in0.0 mm 0.19 in4.8 mm
07:00 PM 62.6°F17.0°C 60.6°F15.9°C 93% Calm Calm 3.1 mph5.0 kmh 29.69 in1005.4 mb 0.00 in0.0 mm 0.00 in0.0 mm 0.19 in4.8 mm
07:10 PM 62.6°F17.0°C 60.9°F16.1°C 94% Calm Calm 3.1 mph5.0 kmh 29.70 in1005.8 mb 0.00 in0.0 mm 0.00 in0.0 mm 0.19 in4.8 mm
07:20 PM 62.6°F17.0°C 60.9°F16.1°C 94% Calm Calm 5.4 mph8.7 kmh 29.68 in1005.1 mb 0.00 in0.0 mm 0.00 in0.0 mm 0.19 in4.8 mm
07:30 PM 62.6°F17.0°C 61.2°F16.2°C 95% 3.1 mph SE5.0 kmh SE 6.0 mph9.7 kmh 29.68 in1005.1 mb 0.00 in0.0 mm 0.00 in0.0 mm 0.19 in4.8 mm
07:40 PM 62.4°F16.9°C 61.3°F16.3°C 96% 4.5 mph SE7.2 kmh SE 7.6 mph12.2 kmh 29.69 in1005.4 mb 0.00 in0.0 mm 0.00 in0.0 mm 0.19 in4.8 mm
07:50 PM 62.6°F17.0°C 60.6°F15.9°C 93% 3.1 mph ESE5.0 kmh ESE 6.9 mph11.1 kmh 29.70 in1005.8 mb 0.00 in0.0 mm 0.00 in0.0 mm 0.19 in4.8 mm
08:00 PM 62.8°F17.1°C 60.1°F15.6°C 91% 0.7 mph E1.1 kmh E 5.4 mph8.7 kmh 29.70 in1005.8 mb 0.00 in0.0 mm 0.00 in0.0 mm 0.19 in4.8 mm
08:10 PM 62.8°F17.1°C 60.1°F15.6°C 91% Calm Calm 4.5 mph7.2 kmh 29.70 in1005.8 mb 0.00 in0.0 mm 0.00 in0.0 mm 0.19 in4.8 mm
08:20 PM 62.8°F17.1°C 60.1°F15.6°C 91% 0.7 mph SE1.1 kmh SE 3.1 mph5.0 kmh 29.70 in1005.8 mb 0.00 in0.0 mm 0.00 in0.0 mm 0.19 in4.8 mm
08:30 PM 62.6°F17.0°C 60.3°F15.7°C 92% 1.6 mph SE2.6 kmh SE 3.1 mph5.0 kmh 29.70 in1005.8 mb 0.00 in0.0 mm 0.00 in0.0 mm 0.19 in4.8 mm
08:40 PM 63.0°F17.2°C 60.9°F16.1°C 93% 2.2 mph NW3.5 kmh NW 6.0 mph9.7 kmh 29.70 in1005.8 mb 0.00 in0.0 mm 0.00 in0.0 mm 0.19 in4.8 mm
08:50 PM 63.1°F17.3°C 61.1°F16.2°C 93% 3.1 mph E5.0 kmh E 7.6 mph12.2 kmh 29.70 in1005.8 mb 0.00 in0.0 mm 0.00 in0.0 mm 0.19 in4.8 mm
09:00 PM 63.1°F17.3°C 61.1°F16.2°C 93% 3.1 mph E5.0 kmh E 6.9 mph11.1 kmh 29.71 in1006.1 mb 0.00 in0.0 mm 0.00 in0.0 mm 0.19 in4.8 mm
09:10 PM 62.8°F17.1°C 60.7°F15.9°C 93% Calm Calm 4.5 mph7.2 kmh 29.71 in1006.1 mb 0.00 in0.0 mm 0.00 in0.0 mm 0.19 in4.8 mm
09:20 PM 62.4°F16.9°C 60.7°F15.9°C 94% 1.6 mph ENE2.6 kmh ENE 3.8 mph6.1 kmh 29.71 in1006.1 mb 0.00 in0.0 mm 0.00 in0.0 mm 0.19 in4.8 mm
09:30 PM 62.1°F16.7°C 60.6°F15.9°C 95% Calm Calm 3.1 mph5.0 kmh 29.70 in1005.8 mb 0.00 in0.0 mm 0.00 in0.0 mm 0.19 in4.8 mm
09:40 PM 61.9°F16.6°C 60.7°F15.9°C 96% Calm Calm -- 29.71 in1006.1 mb 0.00 in0.0 mm 0.00 in0.0 mm 0.19 in4.8 mm
09:50 PM 61.5°F16.4°C 60.7°F15.9°C 97% Calm Calm -- 29.70 in1005.8 mb 0.00 in0.0 mm 0.00 in0.0 mm 0.19 in4.8 mm
10:00 PM 61.2°F16.2°C 60.6°F15.9°C 98% Calm Calm 3.1 mph5.0 kmh 29.70 in1005.8 mb 0.00 in0.0 mm 0.00 in0.0 mm 0.19 in4.8 mm
10:10 PM 61.0°F16.1°C 60.4°F15.8°C 98% Calm Calm -- 29.71 in1006.1 mb 0.00 in0.0 mm 0.00 in0.0 mm 0.19 in4.8 mm
10:20 PM 60.8°F16.0°C 60.2°F15.7°C 98% 1.6 mph NW2.6 kmh NW 4.5 mph7.2 kmh 29.71 in1006.1 mb 0.00 in0.0 mm 0.00 in0.0 mm 0.19 in4.8 mm
10:30 PM 60.4°F15.8°C 60.2°F15.7°C 99% 0.7 mph NNW1.1 kmh NNW 3.1 mph5.0 kmh 29.71 in1006.1 mb 0.00 in0.0 mm 0.00 in0.0 mm 0.19 in4.8 mm
10:40 PM 60.3°F15.7°C 60.0°F15.6°C 99% Calm Calm 3.1 mph5.0 kmh 29.70 in1005.8 mb 0.00 in0.0 mm 0.00 in0.0 mm 0.19 in4.8 mm
10:50 PM 60.1°F15.6°C 59.8°F15.4°C 99% Calm Calm -- 29.70 in1005.8 mb 0.00 in0.0 mm 0.00 in0.0 mm 0.19 in4.8 mm
11:00 PM 60.1°F15.6°C 59.8°F15.4°C 99% Calm Calm -- 29.71 in1006.1 mb 0.00 in0.0 mm 0.00 in0.0 mm 0.14 in3.6 mm
11:10 PM 59.9°F15.5°C 59.6°F15.3°C 99% 2.2 mph NNW3.5 kmh NNW 4.5 mph7.2 kmh 29.71 in1006.1 mb 0.00 in0.0 mm 0.00 in0.0 mm 0.14 in3.6 mm
11:20 PM 59.7°F15.4°C 59.5°F15.3°C 99% 1.6 mph NNW2.6 kmh NNW 3.8 mph6.1 kmh 29.70 in1005.8 mb 0.00 in0.0 mm 0.00 in0.0 mm 0.14 in3.6 mm
11:30 PM 59.5°F15.3°C 59.3°F15.2°C 99% Calm Calm 2.2 mph3.5 kmh 29.70 in1005.8 mb 0.00 in0.0 mm 0.00 in0.0 mm 0.14 in3.6 mm
11:40 PM 59.5°F15.3°C 59.3°F15.2°C 99% Calm Calm -- 29.70 in1005.8 mb 0.00 in0.0 mm 0.00 in0.0 mm 0.14 in3.6 mm
11:50 PM 59.5°F15.3°C 59.3°F15.2°C 99% 1.6 mph NW2.6 kmh NW 4.5 mph7.2 kmh 29.70 in1005.8 mb 0.00 in0.0 mm 0.00 in0.0 mm 0.14 in3.6 mm